Hercules, California
Current Conditions -  °F | °C
As of 8:53 PM on Friday 19 Dec 2014 (Local Time) from KCCR Reporting Station
Haze Haze  
Wind Chill: 54°   Ceiling: 400
Heat Index: 54°   Visibility: 3mi
Dew Point: 51°   Wind: 3mph
Humidity: 90%   Direction: 330°NNW
Pressure: 30.15"   Gusts: NA
Location:  38.01°N, 122.26°W
Report Text: KCCR 200453Z 33003KT 3SM BR OVC004 12/11 A3015 RMK AO2 SLP194 T01220106
Loading
Personal Weather Stations






























Interactive Weather Map New forecast layout! Learn more

10-Day Weather Forecast

Advertisements
Track Severe Weather on mobile